sensor_id;sensor_type;location;lat;lon;timestamp;temperature;humidity
22629;DHT22;11481;53.694;9.910;2023-05-07T00:01:00;10.40;99.90
22629;DHT22;11481;53.694;9.910;2023-05-07T00:03:26;10.30;99.90
22629;DHT22;11481;53.694;9.910;2023-05-07T00:05:53;10.40;99.90
22629;DHT22;11481;53.694;9.910;2023-05-07T00:08:20;10.30;99.90
22629;DHT22;11481;53.694;9.910;2023-05-07T00:10:47;10.30;99.90
22629;DHT22;11481;53.694;9.910;2023-05-07T00:13:14;10.30;99.90
22629;DHT22;11481;53.694;9.910;2023-05-07T00:15:41;10.20;99.90
22629;DHT22;11481;53.694;9.910;2023-05-07T00:18:08;10.20;99.90
22629;DHT22;11481;53.694;9.910;2023-05-07T00:20:34;10.30;99.90
22629;DHT22;11481;53.694;9.910;2023-05-07T00:23:01;10.30;99.90
22629;DHT22;11481;53.694;9.910;2023-05-07T00:25:28;10.40;99.90
22629;DHT22;11481;53.694;9.910;2023-05-07T00:27:55;10.30;99.90
22629;DHT22;11481;53.694;9.910;2023-05-07T00:30:22;10.30;99.90
22629;DHT22;11481;53.694;9.910;2023-05-07T00:32:48;10.30;99.90
22629;DHT22;11481;53.694;9.910;2023-05-07T00:35:17;10.30;99.90
22629;DHT22;11481;53.694;9.910;2023-05-07T00:37:43;10.20;99.90
22629;DHT22;11481;53.694;9.910;2023-05-07T00:40:10;10.20;99.90
22629;DHT22;11481;53.694;9.910;2023-05-07T00:42:38;10.20;99.90
22629;DHT22;11481;53.694;9.910;2023-05-07T00:45:05;10.20;99.90
22629;DHT22;11481;53.694;9.910;2023-05-07T00:47:31;10.20;99.90
22629;DHT22;11481;53.694;9.910;2023-05-07T00:49:58;10.20;99.90
22629;DHT22;11481;53.694;9.910;2023-05-07T00:52:25;10.10;99.90
22629;DHT22;11481;53.694;9.910;2023-05-07T00:54:52;10.20;99.90
22629;DHT22;11481;53.694;9.910;2023-05-07T00:57:21;10.10;99.90
22629;DHT22;11481;53.694;9.910;2023-05-07T00:59:48;10.10;99.90
22629;DHT22;11481;53.694;9.910;2023-05-07T01:02:16;10.00;99.90
22629;DHT22;11481;53.694;9.910;2023-05-07T01:04:43;10.00;99.90
22629;DHT22;11481;53.694;9.910;2023-05-07T01:07:10;10.00;99.90
22629;DHT22;11481;53.694;9.910;2023-05-07T01:09:37;9.90;99.90
22629;DHT22;11481;53.694;9.910;2023-05-07T01:12:04;10.00;99.90
22629;DHT22;11481;53.694;9.910;2023-05-07T01:14:31;9.90;99.90
22629;DHT22;11481;53.694;9.910;2023-05-07T01:16:59;9.90;99.90
22629;DHT22;11481;53.694;9.910;2023-05-07T01:19:26;9.90;99.90
22629;DHT22;11481;53.694;9.910;2023-05-07T01:22:01;10.00;99.90
22629;DHT22;11481;53.694;9.910;2023-05-07T01:24:30;9.90;99.90
22629;DHT22;11481;53.694;9.910;2023-05-07T01:26:56;9.90;99.90
22629;DHT22;11481;53.694;9.910;2023-05-07T01:29:23;9.80;99.90
22629;DHT22;11481;53.694;9.910;2023-05-07T01:31:50;9.90;99.90
22629;DHT22;11481;53.694;9.910;2023-05-07T01:34:19;9.90;99.90
22629;DHT22;11481;53.694;9.910;2023-05-07T01:36:48;10.00;99.90
22629;DHT22;11481;53.694;9.910;2023-05-07T01:39:15;10.00;99.90
22629;DHT22;11481;53.694;9.910;2023-05-07T01:41:43;10.00;99.90
22629;DHT22;11481;53.694;9.910;2023-05-07T01:44:12;10.10;99.90
22629;DHT22;11481;53.694;9.910;2023-05-07T01:46:40;10.10;99.90
22629;DHT22;11481;53.694;9.910;2023-05-07T01:49:07;10.00;99.90
22629;DHT22;11481;53.694;9.910;2023-05-07T01:51:34;10.10;99.90
22629;DHT22;11481;53.694;9.910;2023-05-07T01:54:00;10.00;99.90
22629;DHT22;11481;53.694;9.910;2023-05-07T01:56:27;10.00;99.90
22629;DHT22;11481;53.694;9.910;2023-05-07T01:58:54;10.00;99.90
22629;DHT22;11481;53.694;9.910;2023-05-07T02:01:20;10.10;99.90
22629;DHT22;11481;53.694;9.910;2023-05-07T02:03:47;10.00;99.90
22629;DHT22;11481;53.694;9.910;2023-05-07T02:06:14;10.10;99.90
22629;DHT22;11481;53.694;9.910;2023-05-07T02:08:41;10.10;99.90
22629;DHT22;11481;53.694;9.910;2023-05-07T02:11:07;10.00;99.90
22629;DHT22;11481;53.694;9.910;2023-05-07T02:13:34;10.10;99.90
22629;DHT22;11481;53.694;9.910;2023-05-07T02:16:02;10.10;99.90
22629;DHT22;11481;53.694;9.910;2023-05-07T02:18:29;10.20;99.90
22629;DHT22;11481;53.694;9.910;2023-05-07T02:20:55;10.10;99.90
22629;DHT22;11481;53.694;9.910;2023-05-07T02:23:22;10.10;99.90
22629;DHT22;11481;53.694;9.910;2023-05-07T02:25:49;10.20;99.90
22629;DHT22;11481;53.694;9.910;2023-05-07T02:28:15;10.10;99.90
22629;DHT22;11481;53.694;9.910;2023-05-07T02:30:42;10.10;99.90
22629;DHT22;11481;53.694;9.910;2023-05-07T02:33:08;10.10;99.90
22629;DHT22;11481;53.694;9.910;2023-05-07T02:35:35;10.10;99.90
22629;DHT22;11481;53.694;9.910;2023-05-07T02:38:02;10.10;99.90
22629;DHT22;11481;53.694;9.910;2023-05-07T02:40:29;10.10;99.90
22629;DHT22;11481;53.694;9.910;2023-05-07T02:42:55;10.20;99.90
22629;DHT22;11481;53.694;9.910;2023-05-07T02:45:22;10.20;99.90
22629;DHT22;11481;53.694;9.910;2023-05-07T02:47:48;10.20;99.90
22629;DHT22;11481;53.694;9.910;2023-05-07T02:50:15;10.30;99.90
22629;DHT22;11481;53.694;9.910;2023-05-07T02:52:42;10.20;99.90
22629;DHT22;11481;53.694;9.910;2023-05-07T02:55:09;10.10;99.90
22629;DHT22;11481;53.694;9.910;2023-05-07T02:57:35;10.00;99.90
22629;DHT22;11481;53.694;9.910;2023-05-07T03:00:17;10.10;99.90
22629;DHT22;11481;53.694;9.910;2023-05-07T03:02:44;10.00;99.90
22629;DHT22;11481;53.694;9.910;2023-05-07T03:05:11;10.10;99.90
22629;DHT22;11481;53.694;9.910;2023-05-07T03:07:38;10.00;99.90
22629;DHT22;11481;53.694;9.910;2023-05-07T03:10:05;10.00;99.90
22629;DHT22;11481;53.694;9.910;2023-05-07T03:12:32;10.00;99.90
22629;DHT22;11481;53.694;9.910;2023-05-07T03:14:59;10.10;99.90
22629;DHT22;11481;53.694;9.910;2023-05-07T03:17:25;10.00;99.90
22629;DHT22;11481;53.694;9.910;2023-05-07T03:19:52;10.00;99.90
22629;DHT22;11481;53.694;9.910;2023-05-07T03:22:19;9.90;99.90
22629;DHT22;11481;53.694;9.910;2023-05-07T03:24:45;10.00;99.90
22629;DHT22;11481;53.694;9.910;2023-05-07T03:27:12;10.00;99.90
22629;DHT22;11481;53.694;9.910;2023-05-07T03:29:39;10.00;99.90
22629;DHT22;11481;53.694;9.910;2023-05-07T03:32:05;10.00;99.90
22629;DHT22;11481;53.694;9.910;2023-05-07T03:34:32;10.00;99.90
22629;DHT22;11481;53.694;9.910;2023-05-07T03:36:59;10.00;99.90
22629;DHT22;11481;53.694;9.910;2023-05-07T03:39:26;10.00;99.90
22629;DHT22;11481;53.694;9.910;2023-05-07T03:41:53;10.00;99.90
22629;DHT22;11481;53.694;9.910;2023-05-07T03:44:19;10.00;99.90
22629;DHT22;11481;53.694;9.910;2023-05-07T03:46:46;10.00;99.90
22629;DHT22;11481;53.694;9.910;2023-05-07T03:49:13;9.90;99.90
22629;DHT22;11481;53.694;9.910;2023-05-07T03:51:39;9.90;99.90
22629;DHT22;11481;53.694;9.910;2023-05-07T03:54:06;9.80;99.90
22629;DHT22;11481;53.694;9.910;2023-05-07T03:56:33;9.90;99.90
22629;DHT22;11481;53.694;9.910;2023-05-07T03:59:00;9.90;99.90
22629;DHT22;11481;53.694;9.910;2023-05-07T04:01:27;9.90;99.90
22629;DHT22;11481;53.694;9.910;2023-05-07T04:03:54;9.90;99.90
22629;DHT22;11481;53.694;9.910;2023-05-07T04:06:20;9.90;99.90
22629;DHT22;11481;53.694;9.910;2023-05-07T04:08:47;9.90;99.90
22629;DHT22;11481;53.694;9.910;2023-05-07T04:11:13;9.80;99.90
22629;DHT22;11481;53.694;9.910;2023-05-07T04:13:40;9.90;99.90
22629;DHT22;11481;53.694;9.910;2023-05-07T04:16:08;9.90;99.90
22629;DHT22;11481;53.694;9.910;2023-05-07T04:18:35;10.00;99.90
22629;DHT22;11481;53.694;9.910;2023-05-07T04:21:01;10.00;99.90
22629;DHT22;11481;53.694;9.910;2023-05-07T04:23:28;10.10;99.90
22629;DHT22;11481;53.694;9.910;2023-05-07T04:25:54;10.10;99.90
22629;DHT22;11481;53.694;9.910;2023-05-07T04:28:21;10.00;99.90
22629;DHT22;11481;53.694;9.910;2023-05-07T04:30:48;10.10;99.90
22629;DHT22;11481;53.694;9.910;2023-05-07T04:33:15;10.00;99.90
22629;DHT22;11481;53.694;9.910;2023-05-07T04:35:43;10.10;99.90
22629;DHT22;11481;53.694;9.910;2023-05-07T04:38:10;10.10;99.90
22629;DHT22;11481;53.694;9.910;2023-05-07T04:40:37;10.10;99.90
22629;DHT22;11481;53.694;9.910;2023-05-07T04:43:04;10.10;99.90
22629;DHT22;11481;53.694;9.910;2023-05-07T04:45:30;10.10;99.90
22629;DHT22;11481;53.694;9.910;2023-05-07T04:47:57;10.10;99.90
22629;DHT22;11481;53.694;9.910;2023-05-07T04:50:24;10.00;99.90
22629;DHT22;11481;53.694;9.910;2023-05-07T04:52:51;10.10;99.90
22629;DHT22;11481;53.694;9.910;2023-05-07T04:55:18;10.10;99.90
22629;DHT22;11481;53.694;9.910;2023-05-07T04:57:44;10.10;99.90
22629;DHT22;11481;53.694;9.910;2023-05-07T05:00:11;10.10;99.90
22629;DHT22;11481;53.694;9.910;2023-05-07T05:02:41;10.10;99.90
22629;DHT22;11481;53.694;9.910;2023-05-07T05:05:08;10.00;99.90
22629;DHT22;11481;53.694;9.910;2023-05-07T05:07:34;10.00;99.90
22629;DHT22;11481;53.694;9.910;2023-05-07T05:10:02;9.90;99.90
22629;DHT22;11481;53.694;9.910;2023-05-07T05:12:29;9.90;99.90
22629;DHT22;11481;53.694;9.910;2023-05-07T05:14:56;9.90;99.90
22629;DHT22;11481;53.694;9.910;2023-05-07T05:17:23;10.00;99.90
22629;DHT22;11481;53.694;9.910;2023-05-07T05:19:50;10.00;99.90
22629;DHT22;11481;53.694;9.910;2023-05-07T05:22:18;10.00;99.90
22629;DHT22;11481;53.694;9.910;2023-05-07T05:24:45;10.10;99.90
22629;DHT22;11481;53.694;9.910;2023-05-07T05:27:11;10.20;99.90
22629;DHT22;11481;53.694;9.910;2023-05-07T05:29:38;10.20;99.90
22629;DHT22;11481;53.694;9.910;2023-05-07T05:32:04;10.30;99.90
22629;DHT22;11481;53.694;9.910;2023-05-07T05:34:31;10.20;99.90
22629;DHT22;11481;53.694;9.910;2023-05-07T05:36:59;10.20;99.90
22629;DHT22;11481;53.694;9.910;2023-05-07T05:39:26;10.20;99.90
22629;DHT22;11481;53.694;9.910;2023-05-07T05:41:52;10.30;99.90
22629;DHT22;11481;53.694;9.910;2023-05-07T05:44:19;10.30;99.90
22629;DHT22;11481;53.694;9.910;2023-05-07T05:46:46;10.30;99.90
22629;DHT22;11481;53.694;9.910;2023-05-07T05:49:12;10.40;99.90
22629;DHT22;11481;53.694;9.910;2023-05-07T05:51:39;10.30;99.90
22629;DHT22;11481;53.694;9.910;2023-05-07T05:54:05;10.30;99.90
22629;DHT22;11481;53.694;9.910;2023-05-07T05:56:32;10.30;99.90
22629;DHT22;11481;53.694;9.910;2023-05-07T05:58:59;10.30;99.90
22629;DHT22;11481;53.694;9.910;2023-05-07T06:01:26;10.30;99.90
22629;DHT22;11481;53.694;9.910;2023-05-07T06:03:53;10.40;99.90
22629;DHT22;11481;53.694;9.910;2023-05-07T06:06:19;10.30;99.90
22629;DHT22;11481;53.694;9.910;2023-05-07T06:08:46;10.40;99.90
22629;DHT22;11481;53.694;9.910;2023-05-07T06:11:13;10.40;99.90
22629;DHT22;11481;53.694;9.910;2023-05-07T06:13:39;10.40;99.90
22629;DHT22;11481;53.694;9.910;2023-05-07T06:16:06;10.40;99.90
22629;DHT22;11481;53.694;9.910;2023-05-07T06:18:33;10.50;99.90
22629;DHT22;11481;53.694;9.910;2023-05-07T06:21:02;10.60;99.90
22629;DHT22;11481;53.694;9.910;2023-05-07T06:23:29;10.60;99.90
22629;DHT22;11481;53.694;9.910;2023-05-07T06:25:55;10.70;99.90
22629;DHT22;11481;53.694;9.910;2023-05-07T06:28:22;10.70;99.90
22629;DHT22;11481;53.694;9.910;2023-05-07T06:30:49;10.60;99.90
22629;DHT22;11481;53.694;9.910;2023-05-07T06:33:16;10.70;99.90
22629;DHT22;11481;53.694;9.910;2023-05-07T06:35:43;10.70;99.90
22629;DHT22;11481;53.694;9.910;2023-05-07T06:38:09;10.60;99.90
22629;DHT22;11481;53.694;9.910;2023-05-07T06:40:36;10.60;99.90
22629;DHT22;11481;53.694;9.910;2023-05-07T06:43:05;10.70;99.90
22629;DHT22;11481;53.694;9.910;2023-05-07T06:45:32;10.70;99.90
22629;DHT22;11481;53.694;9.910;2023-05-07T06:47:58;10.80;99.90
22629;DHT22;11481;53.694;9.910;2023-05-07T06:50:26;10.80;99.90
22629;DHT22;11481;53.694;9.910;2023-05-07T06:52:55;10.90;99.90
22629;DHT22;11481;53.694;9.910;2023-05-07T06:55:21;10.80;99.90
22629;DHT22;11481;53.694;9.910;2023-05-07T06:57:48;10.80;99.90
22629;DHT22;11481;53.694;9.910;2023-05-07T07:00:15;10.80;99.90
22629;DHT22;11481;53.694;9.910;2023-05-07T07:02:41;10.90;99.90
22629;DHT22;11481;53.694;9.910;2023-05-07T07:05:08;11.00;99.90
22629;DHT22;11481;53.694;9.910;2023-05-07T07:07:37;10.90;99.90
22629;DHT22;11481;53.694;9.910;2023-05-07T07:10:03;10.90;99.90
22629;DHT22;11481;53.694;9.910;2023-05-07T07:12:31;10.90;99.90
22629;DHT22;11481;53.694;9.910;2023-05-07T07:14:57;10.90;99.90
22629;DHT22;11481;53.694;9.910;2023-05-07T07:17:24;11.00;99.90
22629;DHT22;11481;53.694;9.910;2023-05-07T07:19:50;11.10;99.90
22629;DHT22;11481;53.694;9.910;2023-05-07T07:22:17;11.10;99.90
22629;DHT22;11481;53.694;9.910;2023-05-07T07:24:44;11.10;99.90
22629;DHT22;11481;53.694;9.910;2023-05-07T07:27:10;11.10;99.90
22629;DHT22;11481;53.694;9.910;2023-05-07T07:29:38;11.10;99.90
22629;DHT22;11481;53.694;9.910;2023-05-07T07:32:04;11.20;99.90
22629;DHT22;11481;53.694;9.910;2023-05-07T07:34:31;11.20;99.90
22629;DHT22;11481;53.694;9.910;2023-05-07T07:36:58;11.30;99.90
22629;DHT22;11481;53.694;9.910;2023-05-07T07:39:24;11.20;99.90
22629;DHT22;11481;53.694;9.910;2023-05-07T07:41:51;11.20;99.90
22629;DHT22;11481;53.694;9.910;2023-05-07T07:44:17;11.30;99.90
22629;DHT22;11481;53.694;9.910;2023-05-07T07:46:44;11.20;99.90
22629;DHT22;11481;53.694;9.910;2023-05-07T07:49:11;11.30;99.90
22629;DHT22;11481;53.694;9.910;2023-05-07T07:51:39;11.40;99.90
22629;DHT22;11481;53.694;9.910;2023-05-07T07:54:06;11.40;99.90
22629;DHT22;11481;53.694;9.910;2023-05-07T07:56:33;11.40;99.90
22629;DHT22;11481;53.694;9.910;2023-05-07T07:59:02;11.60;99.90
22629;DHT22;11481;53.694;9.910;2023-05-07T08:01:30;11.60;99.90
22629;DHT22;11481;53.694;9.910;2023-05-07T08:03:58;11.70;99.90
22629;DHT22;11481;53.694;9.910;2023-05-07T08:06:25;11.70;99.90
22629;DHT22;11481;53.694;9.910;2023-05-07T08:08:52;11.70;99.90
22629;DHT22;11481;53.694;9.910;2023-05-07T08:11:19;11.80;99.90
22629;DHT22;11481;53.694;9.910;2023-05-07T08:13:46;11.80;99.90
22629;DHT22;11481;53.694;9.910;2023-05-07T08:16:13;12.00;99.90
22629;DHT22;11481;53.694;9.910;2023-05-07T08:18:41;12.00;99.90
22629;DHT22;11481;53.694;9.910;2023-05-07T08:21:08;11.90;99.90
22629;DHT22;11481;53.694;9.910;2023-05-07T08:23:34;11.90;99.90
22629;DHT22;11481;53.694;9.910;2023-05-07T08:26:01;11.90;99.90
22629;DHT22;11481;53.694;9.910;2023-05-07T08:28:28;12.00;99.90
22629;DHT22;11481;53.694;9.910;2023-05-07T08:30:54;12.00;99.90
22629;DHT22;11481;53.694;9.910;2023-05-07T08:33:23;12.00;99.90
22629;DHT22;11481;53.694;9.910;2023-05-07T08:35:49;12.00;99.90
22629;DHT22;11481;53.694;9.910;2023-05-07T08:38:18;12.00;99.90
22629;DHT22;11481;53.694;9.910;2023-05-07T08:40:45;12.10;99.90
22629;DHT22;11481;53.694;9.910;2023-05-07T08:43:14;12.10;99.90
22629;DHT22;11481;53.694;9.910;2023-05-07T08:45:41;12.10;99.90
22629;DHT22;11481;53.694;9.910;2023-05-07T08:48:14;12.10;99.90
22629;DHT22;11481;53.694;9.910;2023-05-07T08:50:40;12.10;99.90
22629;DHT22;11481;53.694;9.910;2023-05-07T08:53:07;12.00;99.90
22629;DHT22;11481;53.694;9.910;2023-05-07T08:55:34;12.10;99.90
22629;DHT22;11481;53.694;9.910;2023-05-07T08:58:01;12.20;99.90
22629;DHT22;11481;53.694;9.910;2023-05-07T09:00:27;12.20;99.90
22629;DHT22;11481;53.694;9.910;2023-05-07T09:02:55;12.40;99.90
22629;DHT22;11481;53.694;9.910;2023-05-07T09:05:22;12.30;99.90
22629;DHT22;11481;53.694;9.910;2023-05-07T09:07:48;12.30;99.90
22629;DHT22;11481;53.694;9.910;2023-05-07T09:10:21;12.30;99.90
22629;DHT22;11481;53.694;9.910;2023-05-07T09:12:48;12.20;99.90
22629;DHT22;11481;53.694;9.910;2023-05-07T09:15:15;12.30;99.90
22629;DHT22;11481;53.694;9.910;2023-05-07T09:17:43;12.30;99.90
22629;DHT22;11481;53.694;9.910;2023-05-07T09:20:10;12.40;99.90
22629;DHT22;11481;53.694;9.910;2023-05-07T09:22:37;12.50;99.90
22629;DHT22;11481;53.694;9.910;2023-05-07T09:25:06;12.50;99.90
22629;DHT22;11481;53.694;9.910;2023-05-07T09:27:33;12.60;99.90
22629;DHT22;11481;53.694;9.910;2023-05-07T09:30:03;12.60;99.90
22629;DHT22;11481;53.694;9.910;2023-05-07T09:32:36;12.70;99.90
22629;DHT22;11481;53.694;9.910;2023-05-07T09:35:13;12.80;99.90
22629;DHT22;11481;53.694;9.910;2023-05-07T09:37:41;12.90;99.90
22629;DHT22;11481;53.694;9.910;2023-05-07T09:40:20;12.80;99.90
22629;DHT22;11481;53.694;9.910;2023-05-07T09:42:50;12.90;99.90
22629;DHT22;11481;53.694;9.910;2023-05-07T09:45:25;13.00;99.90
22629;DHT22;11481;53.694;9.910;2023-05-07T09:47:57;13.10;99.90
22629;DHT22;11481;53.694;9.910;2023-05-07T09:50:36;13.20;99.90
22629;DHT22;11481;53.694;9.910;2023-05-07T09:53:03;13.50;99.90
22629;DHT22;11481;53.694;9.910;2023-05-07T09:55:30;13.50;99.90
22629;DHT22;11481;53.694;9.910;2023-05-07T09:57:57;13.50;99.90
22629;DHT22;11481;53.694;9.910;2023-05-07T10:00:25;13.60;99.90
22629;DHT22;11481;53.694;9.910;2023-05-07T10:02:56;13.60;99.90
22629;DHT22;11481;53.694;9.910;2023-05-07T10:05:24;13.60;99.90
22629;DHT22;11481;53.694;9.910;2023-05-07T10:07:52;13.60;99.90
22629;DHT22;11481;53.694;9.910;2023-05-07T10:10:19;13.60;99.90
22629;DHT22;11481;53.694;9.910;2023-05-07T10:12:47;13.50;99.90
22629;DHT22;11481;53.694;9.910;2023-05-07T10:15:13;13.60;99.90
22629;DHT22;11481;53.694;9.910;2023-05-07T10:17:41;13.60;99.90
22629;DHT22;11481;53.694;9.910;2023-05-07T10:20:09;13.70;99.90
22629;DHT22;11481;53.694;9.910;2023-05-07T10:22:41;13.70;99.90
22629;DHT22;11481;53.694;9.910;2023-05-07T10:25:16;13.70;99.90
22629;DHT22;11481;53.694;9.910;2023-05-07T10:27:46;13.70;99.90
22629;DHT22;11481;53.694;9.910;2023-05-07T10:33:07;13.60;99.90
22629;DHT22;11481;53.694;9.910;2023-05-07T10:35:41;13.60;99.90
22629;DHT22;11481;53.694;9.910;2023-05-07T10:38:09;13.80;99.90
22629;DHT22;11481;53.694;9.910;2023-05-07T10:40:36;14.00;99.90
22629;DHT22;11481;53.694;9.910;2023-05-07T10:43:04;14.10;99.90
22629;DHT22;11481;53.694;9.910;2023-05-07T10:45:35;14.10;99.90
22629;DHT22;11481;53.694;9.910;2023-05-07T10:51:18;13.90;99.90
22629;DHT22;11481;53.694;9.910;2023-05-07T10:53:46;14.00;99.90
22629;DHT22;11481;53.694;9.910;2023-05-07T10:58:45;14.10;99.90
22629;DHT22;11481;53.694;9.910;2023-05-07T11:01:14;14.10;99.90
22629;DHT22;11481;53.694;9.910;2023-05-07T11:04:15;14.10;99.90
22629;DHT22;11481;53.694;9.910;2023-05-07T11:06:42;14.10;99.90
22629;DHT22;11481;53.694;9.910;2023-05-07T11:15:06;14.60;99.90
22629;DHT22;11481;53.694;9.910;2023-05-07T11:17:35;14.60;99.90
22629;DHT22;11481;53.694;9.910;2023-05-07T11:20:18;14.60;99.90
22629;DHT22;11481;53.694;9.910;2023-05-07T11:22:45;14.60;99.90
22629;DHT22;11481;53.694;9.910;2023-05-07T11:25:17;14.70;99.90
22629;DHT22;11481;53.694;9.910;2023-05-07T11:27:45;14.70;99.90
22629;DHT22;11481;53.694;9.910;2023-05-07T11:30:17;14.70;99.90
22629;DHT22;11481;53.694;9.910;2023-05-07T11:32:47;14.80;99.90
22629;DHT22;11481;53.694;9.910;2023-05-07T11:35:15;14.80;99.90
22629;DHT22;11481;53.694;9.910;2023-05-07T11:37:42;14.80;99.90
22629;DHT22;11481;53.694;9.910;2023-05-07T11:40:10;14.90;99.90
22629;DHT22;11481;53.694;9.910;2023-05-07T11:42:39;15.00;99.90
22629;DHT22;11481;53.694;9.910;2023-05-07T11:45:06;15.00;99.90
22629;DHT22;11481;53.694;9.910;2023-05-07T11:47:34;15.00;99.90
22629;DHT22;11481;53.694;9.910;2023-05-07T11:50:06;14.80;99.90
22629;DHT22;11481;53.694;9.910;2023-05-07T11:52:34;14.80;99.90
22629;DHT22;11481;53.694;9.910;2023-05-07T11:55:02;14.90;99.90
22629;DHT22;11481;53.694;9.910;2023-05-07T11:57:30;15.00;99.90
22629;DHT22;11481;53.694;9.910;2023-05-07T11:59:58;15.20;99.90
22629;DHT22;11481;53.694;9.910;2023-05-07T12:02:25;15.30;99.90
22629;DHT22;11481;53.694;9.910;2023-05-07T12:04:53;15.50;99.90
22629;DHT22;11481;53.694;9.910;2023-05-07T12:07:20;15.50;99.90
22629;DHT22;11481;53.694;9.910;2023-05-07T12:09:47;15.70;99.90
22629;DHT22;11481;53.694;9.910;2023-05-07T12:12:15;15.80;99.90
22629;DHT22;11481;53.694;9.910;2023-05-07T12:14:45;15.90;99.90
22629;DHT22;11481;53.694;9.910;2023-05-07T12:17:13;15.90;99.90
22629;DHT22;11481;53.694;9.910;2023-05-07T12:19:42;15.90;99.90
22629;DHT22;11481;53.694;9.910;2023-05-07T12:22:09;16.00;99.90
22629;DHT22;11481;53.694;9.910;2023-05-07T12:24:46;15.90;99.90
22629;DHT22;11481;53.694;9.910;2023-05-07T12:27:14;15.90;99.90
22629;DHT22;11481;53.694;9.910;2023-05-07T12:29:49;16.00;99.90
22629;DHT22;11481;53.694;9.910;2023-05-07T12:32:17;16.00;99.90
22629;DHT22;11481;53.694;9.910;2023-05-07T12:34:45;16.00;99.90
22629;DHT22;11481;53.694;9.910;2023-05-07T12:37:12;16.10;99.90
22629;DHT22;11481;53.694;9.910;2023-05-07T12:39:48;16.20;99.90
22629;DHT22;11481;53.694;9.910;2023-05-07T12:42:16;16.20;99.90
22629;DHT22;11481;53.694;9.910;2023-05-07T12:44:46;16.20;99.90
22629;DHT22;11481;53.694;9.910;2023-05-07T12:47:15;16.40;99.90
22629;DHT22;11481;53.694;9.910;2023-05-07T12:49:42;16.60;99.90
22629;DHT22;11481;53.694;9.910;2023-05-07T12:52:11;16.70;99.90
22629;DHT22;11481;53.694;9.910;2023-05-07T12:54:38;16.80;99.90
22629;DHT22;11481;53.694;9.910;2023-05-07T12:57:07;17.00;99.90
22629;DHT22;11481;53.694;9.910;2023-05-07T12:59:38;17.20;99.90
22629;DHT22;11481;53.694;9.910;2023-05-07T13:02:07;17.30;99.90
22629;DHT22;11481;53.694;9.910;2023-05-07T13:04:34;17.40;99.90
22629;DHT22;11481;53.694;9.910;2023-05-07T13:07:01;17.40;99.90
22629;DHT22;11481;53.694;9.910;2023-05-07T13:09:31;17.40;99.90
22629;DHT22;11481;53.694;9.910;2023-05-07T13:11:59;17.40;99.90
22629;DHT22;11481;53.694;9.910;2023-05-07T13:14:27;17.40;99.90
22629;DHT22;11481;53.694;9.910;2023-05-07T13:16:54;17.60;99.90
22629;DHT22;11481;53.694;9.910;2023-05-07T13:19:21;17.80;99.90
22629;DHT22;11481;53.694;9.910;2023-05-07T13:21:47;17.70;99.90
22629;DHT22;11481;53.694;9.910;2023-05-07T13:24:18;17.80;99.90
22629;DHT22;11481;53.694;9.910;2023-05-07T13:26:44;17.80;99.90
22629;DHT22;11481;53.694;9.910;2023-05-07T13:29:11;18.00;99.90
22629;DHT22;11481;53.694;9.910;2023-05-07T13:31:38;18.00;99.90
22629;DHT22;11481;53.694;9.910;2023-05-07T13:34:13;18.10;99.90
22629;DHT22;11481;53.694;9.910;2023-05-07T13:36:39;18.10;99.90
22629;DHT22;11481;53.694;9.910;2023-05-07T13:39:08;18.20;99.90
22629;DHT22;11481;53.694;9.910;2023-05-07T13:41:35;18.30;99.90
22629;DHT22;11481;53.694;9.910;2023-05-07T13:44:04;18.40;99.90
22629;DHT22;11481;53.694;9.910;2023-05-07T13:46:31;18.60;99.90
22629;DHT22;11481;53.694;9.910;2023-05-07T13:48:58;18.70;99.90
22629;DHT22;11481;53.694;9.910;2023-05-07T13:51:27;18.80;99.90
22629;DHT22;11481;53.694;9.910;2023-05-07T13:53:53;18.90;99.90
22629;DHT22;11481;53.694;9.910;2023-05-07T13:56:20;19.00;99.90
22629;DHT22;11481;53.694;9.910;2023-05-07T13:58:47;19.10;99.90
22629;DHT22;11481;53.694;9.910;2023-05-07T14:01:26;19.10;99.90
22629;DHT22;11481;53.694;9.910;2023-05-07T14:03:52;18.90;99.90
22629;DHT22;11481;53.694;9.910;2023-05-07T14:06:19;18.80;99.90
22629;DHT22;11481;53.694;9.910;2023-05-07T14:08:46;18.80;99.90
22629;DHT22;11481;53.694;9.910;2023-05-07T14:11:13;18.90;99.90
22629;DHT22;11481;53.694;9.910;2023-05-07T14:13:41;18.90;99.90
22629;DHT22;11481;53.694;9.910;2023-05-07T14:16:07;19.00;99.90
22629;DHT22;11481;53.694;9.910;2023-05-07T14:18:34;19.30;99.90
22629;DHT22;11481;53.694;9.910;2023-05-07T14:21:04;19.40;99.90
22629;DHT22;11481;53.694;9.910;2023-05-07T14:23:32;19.40;99.90
22629;DHT22;11481;53.694;9.910;2023-05-07T14:25:59;19.50;99.90
22629;DHT22;11481;53.694;9.910;2023-05-07T14:28:25;19.70;99.90
22629;DHT22;11481;53.694;9.910;2023-05-07T14:30:52;19.90;99.90
22629;DHT22;11481;53.694;9.910;2023-05-07T14:33:19;19.90;99.90
22629;DHT22;11481;53.694;9.910;2023-05-07T14:35:45;20.20;99.90
22629;DHT22;11481;53.694;9.910;2023-05-07T14:38:15;20.30;99.90
22629;DHT22;11481;53.694;9.910;2023-05-07T14:40:42;20.60;99.90
22629;DHT22;11481;53.694;9.910;2023-05-07T14:43:08;20.80;99.90
22629;DHT22;11481;53.694;9.910;2023-05-07T14:45:35;20.90;99.90
22629;DHT22;11481;53.694;9.910;2023-05-07T14:48:02;20.90;99.90
22629;DHT22;11481;53.694;9.910;2023-05-07T14:50:29;21.10;99.90
22629;DHT22;11481;53.694;9.910;2023-05-07T14:53:01;21.10;99.90
22629;DHT22;11481;53.694;9.910;2023-05-07T14:55:28;21.30;99.90
22629;DHT22;11481;53.694;9.910;2023-05-07T14:57:55;21.30;99.90
22629;DHT22;11481;53.694;9.910;2023-05-07T15:00:22;21.50;99.90
22629;DHT22;11481;53.694;9.910;2023-05-07T15:02:52;21.50;99.90
22629;DHT22;11481;53.694;9.910;2023-05-07T15:05:18;21.40;99.90
22629;DHT22;11481;53.694;9.910;2023-05-07T15:07:45;21.30;99.90
22629;DHT22;11481;53.694;9.910;2023-05-07T15:10:13;21.20;99.90
22629;DHT22;11481;53.694;9.910;2023-05-07T15:12:40;21.20;99.90
22629;DHT22;11481;53.694;9.910;2023-05-07T15:15:07;21.00;99.90
22629;DHT22;11481;53.694;9.910;2023-05-07T15:17:34;20.80;99.90
22629;DHT22;11481;53.694;9.910;2023-05-07T15:20:00;20.60;99.90
22629;DHT22;11481;53.694;9.910;2023-05-07T15:22:27;20.50;99.90
22629;DHT22;11481;53.694;9.910;2023-05-07T15:24:53;20.40;99.90
22629;DHT22;11481;53.694;9.910;2023-05-07T15:27:22;20.40;99.90
22629;DHT22;11481;53.694;9.910;2023-05-07T15:29:49;20.20;99.90
22629;DHT22;11481;53.694;9.910;2023-05-07T15:32:15;19.90;99.90
22629;DHT22;11481;53.694;9.910;2023-05-07T15:34:42;19.70;99.90
22629;DHT22;11481;53.694;9.910;2023-05-07T15:37:10;19.70;99.90
22629;DHT22;11481;53.694;9.910;2023-05-07T15:39:37;19.80;99.90
22629;DHT22;11481;53.694;9.910;2023-05-07T15:42:03;20.00;99.90
22629;DHT22;11481;53.694;9.910;2023-05-07T15:44:30;20.00;99.90
22629;DHT22;11481;53.694;9.910;2023-05-07T15:47:01;19.90;99.90
22629;DHT22;11481;53.694;9.910;2023-05-07T15:49:27;19.90;99.90